sensor_id;sensor_type;location;lat;lon;timestamp;pressure;altitude;pressure_sealevel;temperature;humidity
18569;BME280;14780;48.316;-1.050;2023-02-25T00:02:43;98463.59;;;23.55;31.89
18569;BME280;14780;48.316;-1.050;2023-02-25T00:05:28;98457.84;;;23.56;31.82
18569;BME280;14780;48.316;-1.050;2023-02-25T00:08:14;98459.75;;;23.56;31.78
18569;BME280;14780;48.316;-1.050;2023-02-25T00:11:01;98460.03;;;23.54;31.80
18569;BME280;14780;48.316;-1.050;2023-02-25T00:13:47;98468.22;;;23.54;31.74
18569;BME280;14780;48.316;-1.050;2023-02-25T00:16:32;98461.13;;;23.53;31.85
18569;BME280;14780;48.316;-1.050;2023-02-25T00:19:17;98464.16;;;23.52;31.88
18569;BME280;14780;48.316;-1.050;2023-02-25T00:22:02;98466.59;;;23.53;31.93
18569;BME280;14780;48.316;-1.050;2023-02-25T00:24:50;98469.31;;;23.53;31.90
18569;BME280;14780;48.316;-1.050;2023-02-25T00:27:35;98467.09;;;23.55;31.86
18569;BME280;14780;48.316;-1.050;2023-02-25T00:30:20;98464.94;;;23.57;31.74
18569;BME280;14780;48.316;-1.050;2023-02-25T00:33:06;98470.66;;;23.56;31.83
18569;BME280;14780;48.316;-1.050;2023-02-25T00:35:51;98469.84;;;23.55;31.87
18569;BME280;14780;48.316;-1.050;2023-02-25T00:38:36;98485.41;;;23.55;31.73
18569;BME280;14780;48.316;-1.050;2023-02-25T00:41:27;98482.41;;;23.56;31.77
18569;BME280;14780;48.316;-1.050;2023-02-25T00:44:13;98476.13;;;23.56;31.75
18569;BME280;14780;48.316;-1.050;2023-02-25T00:46:58;98483.22;;;23.57;31.69
18569;BME280;14780;48.316;-1.050;2023-02-25T00:49:44;98481.59;;;23.56;31.78
18569;BME280;14780;48.316;-1.050;2023-02-25T00:52:32;98486.78;;;23.57;31.77
18569;BME280;14780;48.316;-1.050;2023-02-25T00:55:17;98487.56;;;23.58;31.80
18569;BME280;14780;48.316;-1.050;2023-02-25T00:58:01;98481.00;;;23.59;31.82
18569;BME280;14780;48.316;-1.050;2023-02-25T01:00:46;98481.00;;;23.59;31.80
18569;BME280;14780;48.316;-1.050;2023-02-25T01:03:32;98481.84;;;23.59;31.72
18569;BME280;14780;48.316;-1.050;2023-02-25T01:06:17;98474.75;;;23.58;31.83
18569;BME280;14780;48.316;-1.050;2023-02-25T01:09:04;98478.00;;;23.60;31.83
18569;BME280;14780;48.316;-1.050;2023-02-25T01:11:50;98476.38;;;23.59;31.63
18569;BME280;14780;48.316;-1.050;2023-02-25T01:14:35;98473.38;;;23.61;31.82
18569;BME280;14780;48.316;-1.050;2023-02-25T01:17:20;98472.25;;;23.62;31.79
18569;BME280;14780;48.316;-1.050;2023-02-25T01:20:06;98468.69;;;23.61;31.76
18569;BME280;14780;48.316;-1.050;2023-02-25T01:22:55;98471.16;;;23.63;31.78
18569;BME280;14780;48.316;-1.050;2023-02-25T01:25:40;98473.38;;;23.61;31.85
18569;BME280;14780;48.316;-1.050;2023-02-25T01:28:25;98481.25;;;23.62;31.89
18569;BME280;14780;48.316;-1.050;2023-02-25T01:31:19;98479.06;;;23.64;31.82
18569;BME280;14780;48.316;-1.050;2023-02-25T01:34:14;98477.44;;;23.63;31.84
18569;BME280;14780;48.316;-1.050;2023-02-25T01:37:00;98485.66;;;23.63;31.71
18569;BME280;14780;48.316;-1.050;2023-02-25T01:39:45;98481.25;;;23.62;31.88
18569;BME280;14780;48.316;-1.050;2023-02-25T01:42:30;98482.34;;;23.61;31.79
18569;BME280;14780;48.316;-1.050;2023-02-25T01:48:14;98488.38;;;23.63;31.79
18569;BME280;14780;48.316;-1.050;2023-02-25T01:51:06;98488.13;;;23.60;31.93
18569;BME280;14780;48.316;-1.050;2023-02-25T01:53:55;98480.22;;;23.58;31.81
18569;BME280;14780;48.316;-1.050;2023-02-25T01:56:43;98487.28;;;23.59;31.76
18569;BME280;14780;48.316;-1.050;2023-02-25T01:59:29;98485.66;;;23.58;31.75
18569;BME280;14780;48.316;-1.050;2023-02-25T02:02:17;98474.16;;;23.61;31.80
18569;BME280;14780;48.316;-1.050;2023-02-25T02:05:03;98473.13;;;23.57;31.75
18569;BME280;14780;48.316;-1.050;2023-02-25T02:07:48;98471.78;;;23.55;31.91
18569;BME280;14780;48.316;-1.050;2023-02-25T02:10:33;98466.03;;;23.56;31.90
18569;BME280;14780;48.316;-1.050;2023-02-25T02:13:18;98458.91;;;23.55;31.69
18569;BME280;14780;48.316;-1.050;2023-02-25T02:25:28;98462.50;;;23.51;31.64
18569;BME280;14780;48.316;-1.050;2023-02-25T02:31:48;98460.88;;;23.50;31.72
18569;BME280;14780;48.316;-1.050;2023-02-25T02:34:52;98456.78;;;23.47;31.75
18569;BME280;14780;48.316;-1.050;2023-02-25T02:41:13;98447.22;;;23.50;31.68
18569;BME280;14780;48.316;-1.050;2023-02-25T02:44:34;98455.41;;;23.50;31.65
18569;BME280;14780;48.316;-1.050;2023-02-25T02:47:28;98458.44;;;23.48;31.72
18569;BME280;14780;48.316;-1.050;2023-02-25T02:53:37;98460.34;;;23.48;31.66
18569;BME280;14780;48.316;-1.050;2023-02-25T02:56:24;98454.06;;;23.47;31.73
18569;BME280;14780;48.316;-1.050;2023-02-25T02:59:18;98457.09;;;23.46;31.79
18569;BME280;14780;48.316;-1.050;2023-02-25T03:02:09;98457.63;;;23.48;31.72
18569;BME280;14780;48.316;-1.050;2023-02-25T03:05:00;98454.63;;;23.49;31.74
18569;BME280;14780;48.316;-1.050;2023-02-25T03:07:53;98449.97;;;23.50;31.83
18569;BME280;14780;48.316;-1.050;2023-02-25T03:10:39;98454.63;;;23.49;31.79
18569;BME280;14780;48.316;-1.050;2023-02-25T03:13:24;98458.16;;;23.50;31.71
18569;BME280;14780;48.316;-1.050;2023-02-25T03:16:16;98461.72;;;23.50;31.75
18569;BME280;14780;48.316;-1.050;2023-02-25T03:19:17;98461.44;;;23.52;31.73
18569;BME280;14780;48.316;-1.050;2023-02-25T03:22:12;98464.44;;;23.50;31.81
18569;BME280;14780;48.316;-1.050;2023-02-25T03:25:24;98468.22;;;23.54;31.71
18569;BME280;14780;48.316;-1.050;2023-02-25T03:31:19;98464.16;;;23.52;31.81
18569;BME280;14780;48.316;-1.050;2023-02-25T03:34:23;98468.22;;;23.54;31.70
18569;BME280;14780;48.316;-1.050;2023-02-25T03:37:14;98469.31;;;23.53;31.78
18569;BME280;14780;48.316;-1.050;2023-02-25T03:40:01;98472.53;;;23.60;31.67
18569;BME280;14780;48.316;-1.050;2023-02-25T03:43:08;98467.97;;;23.51;31.81
18569;BME280;14780;48.316;-1.050;2023-02-25T03:45:55;98472.63;;;23.50;31.72
18569;BME280;14780;48.316;-1.050;2023-02-25T03:48:40;98474.25;;;23.51;31.76
18569;BME280;14780;48.316;-1.050;2023-02-25T03:51:28;98471.81;;;23.50;31.78
18569;BME280;14780;48.316;-1.050;2023-02-25T03:54:15;98479.72;;;23.51;31.80
18569;BME280;14780;48.316;-1.050;2023-02-25T03:57:01;98470.41;;;23.52;31.68
18569;BME280;14780;48.316;-1.050;2023-02-25T03:59:46;98467.69;;;23.52;31.64
18569;BME280;14780;48.316;-1.050;2023-02-25T04:02:32;98475.88;;;23.52;31.67
18569;BME280;14780;48.316;-1.050;2023-02-25T04:05:18;98472.03;;;23.53;31.63
18569;BME280;14780;48.316;-1.050;2023-02-25T04:08:04;98472.34;;;23.52;31.77
18569;BME280;14780;48.316;-1.050;2023-02-25T04:10:59;98467.41;;;23.54;31.71
18569;BME280;14780;48.316;-1.050;2023-02-25T04:13:44;98476.72;;;23.53;31.71
18569;BME280;14780;48.316;-1.050;2023-02-25T04:16:28;98473.66;;;23.54;31.69
18569;BME280;14780;48.316;-1.050;2023-02-25T04:19:13;98477.50;;;23.53;31.68
18569;BME280;14780;48.316;-1.050;2023-02-25T04:21:58;98479.13;;;23.54;31.68
18569;BME280;14780;48.316;-1.050;2023-02-25T04:24:43;98477.50;;;23.53;31.63
18569;BME280;14780;48.316;-1.050;2023-02-25T04:27:28;98490.06;;;23.54;31.64
18569;BME280;14780;48.316;-1.050;2023-02-25T04:30:13;98482.69;;;23.55;31.63
18569;BME280;14780;48.316;-1.050;2023-02-25T04:32:58;98491.47;;;23.52;31.66
18569;BME280;14780;48.316;-1.050;2023-02-25T04:35:43;98484.59;;;23.54;31.72
18569;BME280;14780;48.316;-1.050;2023-02-25T04:38:27;98491.69;;;23.55;31.69
18569;BME280;14780;48.316;-1.050;2023-02-25T04:41:12;98484.59;;;23.54;31.70
18569;BME280;14780;48.316;-1.050;2023-02-25T04:43:57;98488.94;;;23.55;31.69
18569;BME280;14780;48.316;-1.050;2023-02-25T04:46:42;98491.41;;;23.57;31.66
18569;BME280;14780;48.316;-1.050;2023-02-25T04:49:27;98480.75;;;23.55;31.71
18569;BME280;14780;48.316;-1.050;2023-02-25T04:52:13;98491.69;;;23.55;31.68
18569;BME280;14780;48.316;-1.050;2023-02-25T04:54:58;98486.22;;;23.55;31.60
18569;BME280;14780;48.316;-1.050;2023-02-25T04:57:43;98480.00;;;23.50;31.64
18569;BME280;14780;48.316;-1.050;2023-02-25T05:00:28;98487.63;;;23.53;31.45
18569;BME280;14780;48.316;-1.050;2023-02-25T05:03:13;98476.72;;;23.53;31.61
18569;BME280;14780;48.316;-1.050;2023-02-25T05:05:59;98481.34;;;23.52;31.64
18569;BME280;14780;48.316;-1.050;2023-02-25T05:08:44;98474.25;;;23.51;31.53
18569;BME280;14780;48.316;-1.050;2023-02-25T05:11:28;98481.91;;;23.49;31.67
18569;BME280;14780;48.316;-1.050;2023-02-25T05:14:13;98481.91;;;23.49;31.68
18569;BME280;14780;48.316;-1.050;2023-02-25T05:16:58;98489.56;;;23.47;31.52
18569;BME280;14780;48.316;-1.050;2023-02-25T05:19:42;98488.50;;;23.48;31.61
18569;BME280;14780;48.316;-1.050;2023-02-25T05:22:27;98493.41;;;23.46;31.61
18569;BME280;14780;48.316;-1.050;2023-02-25T05:25:12;98500.78;;;23.46;31.51
18569;BME280;14780;48.316;-1.050;2023-02-25T05:27:56;98499.41;;;23.48;31.59
18569;BME280;14780;48.316;-1.050;2023-02-25T05:30:41;98499.16;;;23.45;31.50
18569;BME280;14780;48.316;-1.050;2023-02-25T05:33:25;98508.16;;;23.45;31.51
18569;BME280;14780;48.316;-1.050;2023-02-25T05:36:13;98501.06;;;23.44;31.46
18569;BME280;14780;48.316;-1.050;2023-02-25T05:38:58;98506.28;;;23.41;31.51
18569;BME280;14780;48.316;-1.050;2023-02-25T05:41:46;98514.72;;;23.44;31.58
18569;BME280;14780;48.316;-1.050;2023-02-25T05:44:32;98509.81;;;23.42;31.62
18569;BME280;14780;48.316;-1.050;2023-02-25T05:47:16;98500.81;;;23.41;31.42
18569;BME280;14780;48.316;-1.050;2023-02-25T05:50:01;98501.09;;;23.39;31.61
18569;BME280;14780;48.316;-1.050;2023-02-25T05:52:46;98505.44;;;23.40;31.53
18569;BME280;14780;48.316;-1.050;2023-02-25T05:55:30;98503.28;;;23.38;31.53
18569;BME280;14780;48.316;-1.050;2023-02-25T05:58:15;98498.09;;;23.41;31.49
18569;BME280;14780;48.316;-1.050;2023-02-25T06:01:05;98495.94;;;23.38;31.42
18569;BME280;14780;48.316;-1.050;2023-02-25T06:03:54;98500.56;;;23.38;31.53
18569;BME280;14780;48.316;-1.050;2023-02-25T06:06:42;98507.13;;;23.37;31.56
18569;BME280;14780;48.316;-1.050;2023-02-25T06:09:27;98500.84;;;23.36;31.49
18569;BME280;14780;48.316;-1.050;2023-02-25T06:12:12;98516.34;;;23.40;31.50
18569;BME280;14780;48.316;-1.050;2023-02-25T06:14:57;98512.59;;;23.37;31.42
18569;BME280;14780;48.316;-1.050;2023-02-25T06:17:42;98510.94;;;23.36;31.49
18569;BME280;14780;48.316;-1.050;2023-02-25T06:20:26;98521.28;;;23.38;31.48
18569;BME280;14780;48.316;-1.050;2023-02-25T06:23:11;98524.03;;;23.38;31.54
18569;BME280;14780;48.316;-1.050;2023-02-25T06:25:58;98519.66;;;23.38;31.58
18569;BME280;14780;48.316;-1.050;2023-02-25T06:28:43;98523.22;;;23.38;31.60
18569;BME280;14780;48.316;-1.050;2023-02-25T06:31:28;98516.94;;;23.38;31.60
18569;BME280;14780;48.316;-1.050;2023-02-25T06:34:12;98524.03;;;23.38;31.56
18569;BME280;14780;48.316;-1.050;2023-02-25T06:36:57;98522.66;;;23.41;31.46
18569;BME280;14780;48.316;-1.050;2023-02-25T06:39:42;98514.72;;;23.39;31.47
18569;BME280;14780;48.316;-1.050;2023-02-25T06:42:27;98525.66;;;23.39;31.47
18569;BME280;14780;48.316;-1.050;2023-02-25T06:45:11;98521.28;;;23.38;31.47
18569;BME280;14780;48.316;-1.050;2023-02-25T06:47:56;98526.47;;;23.40;31.48
18569;BME280;14780;48.316;-1.050;2023-02-25T06:50:42;98524.03;;;23.38;31.52
18569;BME280;14780;48.316;-1.050;2023-02-25T06:53:27;98534.41;;;23.42;31.50
18569;BME280;14780;48.316;-1.050;2023-02-25T06:56:14;98536.56;;;23.39;31.39
18569;BME280;14780;48.316;-1.050;2023-02-25T06:58:58;98539.88;;;23.37;31.34
18569;BME280;14780;48.316;-1.050;2023-02-25T07:01:43;98534.94;;;23.38;31.46
18569;BME280;14780;48.316;-1.050;2023-02-25T07:04:28;98545.88;;;23.38;31.45
18569;BME280;14780;48.316;-1.050;2023-02-25T07:07:12;98551.31;;;23.38;31.34
18569;BME280;14780;48.316;-1.050;2023-02-25T07:09:57;98550.81;;;23.37;31.41
18569;BME280;14780;48.316;-1.050;2023-02-25T07:12:41;98553.25;;;23.38;31.43
18569;BME280;14780;48.316;-1.050;2023-02-25T07:15:26;98558.72;;;23.38;31.43
18569;BME280;14780;48.316;-1.050;2023-02-25T07:18:11;98567.72;;;23.38;31.33
18569;BME280;14780;48.316;-1.050;2023-02-25T07:20:57;98573.69;;;23.40;31.46
18569;BME280;14780;48.316;-1.050;2023-02-25T07:23:42;98582.72;;;23.41;31.38
18569;BME280;14780;48.316;-1.050;2023-02-25T07:26:26;98578.09;;;23.42;31.32
18569;BME280;14780;48.316;-1.050;2023-02-25T07:29:12;98579.16;;;23.40;31.44
18569;BME280;14780;48.316;-1.050;2023-02-25T07:31:57;98589.53;;;23.43;31.43
18569;BME280;14780;48.316;-1.050;2023-02-25T07:34:41;98591.16;;;23.44;31.42
18569;BME280;14780;48.316;-1.050;2023-02-25T07:37:26;98593.88;;;23.44;31.37
18569;BME280;14780;48.316;-1.050;2023-02-25T07:40:11;98603.72;;;23.45;31.36
18569;BME280;14780;48.316;-1.050;2023-02-25T07:42:56;98606.44;;;23.45;31.27
18569;BME280;14780;48.316;-1.050;2023-02-25T07:45:41;98602.91;;;23.45;31.31
18569;BME280;14780;48.316;-1.050;2023-02-25T07:48:26;98613.53;;;23.46;31.34
18569;BME280;14780;48.316;-1.050;2023-02-25T07:51:14;98607.25;;;23.46;31.33
18569;BME280;14780;48.316;-1.050;2023-02-25T07:54:02;98612.72;;;23.46;31.41
18569;BME280;14780;48.316;-1.050;2023-02-25T07:56:47;98602.59;;;23.46;31.41
18569;BME280;14780;48.316;-1.050;2023-02-25T07:59:34;98610.00;;;23.46;31.34
18569;BME280;14780;48.316;-1.050;2023-02-25T08:02:19;98608.91;;;23.47;31.31
18569;BME280;14780;48.316;-1.050;2023-02-25T08:05:05;98614.63;;;23.45;31.30
18569;BME280;14780;48.316;-1.050;2023-02-25T08:07:50;98619.00;;;23.46;31.46
18569;BME280;14780;48.316;-1.050;2023-02-25T08:10:36;98617.88;;;23.47;31.44
18569;BME280;14780;48.316;-1.050;2023-02-25T08:13:21;98623.91;;;23.49;31.41
18569;BME280;14780;48.316;-1.050;2023-02-25T08:16:07;98620.88;;;23.51;31.37
18569;BME280;14780;48.316;-1.050;2023-02-25T08:18:53;98620.06;;;23.50;31.38
18569;BME280;14780;48.316;-1.050;2023-02-25T08:21:38;98618.44;;;23.49;31.32
18569;BME280;14780;48.316;-1.050;2023-02-25T08:24:24;98617.34;;;23.50;31.36
18569;BME280;14780;48.316;-1.050;2023-02-25T08:27:09;98613.78;;;23.50;31.32
18569;BME280;14780;48.316;-1.050;2023-02-25T08:29:54;98622.28;;;23.48;31.41
18569;BME280;14780;48.316;-1.050;2023-02-25T08:32:40;98629.91;;;23.51;31.33
18569;BME280;14780;48.316;-1.050;2023-02-25T08:35:26;98627.16;;;23.51;31.50
18569;BME280;14780;48.316;-1.050;2023-02-25T08:38:11;98633.47;;;23.52;31.45
18569;BME280;14780;48.316;-1.050;2023-02-25T08:40:59;98631.78;;;23.51;31.50
18569;BME280;14780;48.316;-1.050;2023-02-25T08:43:47;98624.97;;;23.53;31.49
18569;BME280;14780;48.316;-1.050;2023-02-25T08:46:32;98626.59;;;23.54;31.78
18569;BME280;14780;48.316;-1.050;2023-02-25T08:49:17;98624.97;;;23.53;31.78
18569;BME280;14780;48.316;-1.050;2023-02-25T08:52:02;98623.91;;;23.49;31.76
18569;BME280;14780;48.316;-1.050;2023-02-25T08:54:46;98630.22;;;23.45;31.61
18569;BME280;14780;48.316;-1.050;2023-02-25T08:57:31;98619.59;;;23.33;31.37
18569;BME280;14780;48.316;-1.050;2023-02-25T09:00:17;98615.00;;;23.24;31.36
18569;BME280;14780;48.316;-1.050;2023-02-25T09:03:02;98624.59;;;23.17;31.17
18569;BME280;14780;48.316;-1.050;2023-02-25T09:05:52;98617.19;;;23.12;31.31
18569;BME280;14780;48.316;-1.050;2023-02-25T09:08:37;98610.38;;;23.05;31.37
18569;BME280;14780;48.316;-1.050;2023-02-25T09:11:23;98613.97;;;23.00;31.31
18569;BME280;14780;48.316;-1.050;2023-02-25T09:14:08;98616.16;;;22.98;31.22
18569;BME280;14780;48.316;-1.050;2023-02-25T09:16:53;98610.44;;;22.95;31.20
18569;BME280;14780;48.316;-1.050;2023-02-25T09:19:38;98610.75;;;22.88;31.09
18569;BME280;14780;48.316;-1.050;2023-02-25T09:22:23;98617.56;;;22.86;31.17
18569;BME280;14780;48.316;-1.050;2023-02-25T09:25:08;98613.47;;;22.83;31.17
18569;BME280;14780;48.316;-1.050;2023-02-25T09:27:53;98611.56;;;22.79;31.18
18569;BME280;14780;48.316;-1.050;2023-02-25T09:30:38;98613.22;;;22.75;31.06
18569;BME280;14780;48.316;-1.050;2023-02-25T09:33:24;98613.50;;;22.73;31.03
18569;BME280;14780;48.316;-1.050;2023-02-25T09:36:14;98618.41;;;22.71;31.13
18569;BME280;14780;48.316;-1.050;2023-02-25T09:38:59;98618.69;;;22.70;31.01
18569;BME280;14780;48.316;-1.050;2023-02-25T09:41:49;98617.59;;;22.71;31.08
18569;BME280;14780;48.316;-1.050;2023-02-25T09:44:44;98623.59;;;22.68;30.85
18569;BME280;14780;48.316;-1.050;2023-02-25T09:47:41;98612.16;;;22.66;31.02
18569;BME280;14780;48.316;-1.050;2023-02-25T09:50:33;98613.25;;;22.65;31.05
18569;BME280;14780;48.316;-1.050;2023-02-25T09:53:37;98613.25;;;22.65;30.89
18569;BME280;14780;48.316;-1.050;2023-02-25T09:56:26;98613.25;;;22.60;30.97
18569;BME280;14780;48.316;-1.050;2023-02-25T09:59:16;98607.25;;;22.63;30.88
18569;BME280;14780;48.316;-1.050;2023-02-25T10:08:18;98620.88;;;22.63;30.79
18569;BME280;14780;48.316;-1.050;2023-02-25T10:11:09;98616.50;;;22.62;30.84
18569;BME280;14780;48.316;-1.050;2023-02-25T10:17:16;98616.78;;;22.60;30.72
18569;BME280;14780;48.316;-1.050;2023-02-25T10:26:58;98608.91;;;22.49;30.57
18569;BME280;14780;48.316;-1.050;2023-02-25T10:29:53;98612.97;;;22.41;30.58
18569;BME280;14780;48.316;-1.050;2023-02-25T10:32:41;98613.22;;;22.40;30.62
18569;BME280;14780;48.316;-1.050;2023-02-25T10:35:32;98611.06;;;22.37;30.56
18569;BME280;14780;48.316;-1.050;2023-02-25T10:38:18;98616.50;;;22.37;30.53
18569;BME280;14780;48.316;-1.050;2023-02-25T10:41:04;98620.06;;;22.37;30.62
18569;BME280;14780;48.316;-1.050;2023-02-25T10:43:50;98618.41;;;22.36;30.48
18569;BME280;14780;48.316;-1.050;2023-02-25T10:49:34;98619.22;;;22.32;30.77
18569;BME280;14780;48.316;-1.050;2023-02-25T10:52:21;98624.16;;;22.35;30.74
18569;BME280;14780;48.316;-1.050;2023-02-25T10:58:58;98640.53;;;22.50;30.97
18569;BME280;14780;48.316;-1.050;2023-02-25T11:01:44;98638.88;;;22.54;31.14
18569;BME280;14780;48.316;-1.050;2023-02-25T11:04:36;98635.06;;;22.60;31.07
18569;BME280;14780;48.316;-1.050;2023-02-25T11:10:23;98625.78;;;22.66;31.21
18569;BME280;14780;48.316;-1.050;2023-02-25T11:13:27;98629.03;;;22.73;31.17
18569;BME280;14780;48.316;-1.050;2023-02-25T11:16:13;98625.78;;;22.71;31.35
18569;BME280;14780;48.316;-1.050;2023-02-25T11:19:02;98626.03;;;22.74;31.24
18569;BME280;14780;48.316;-1.050;2023-02-25T11:21:49;98616.50;;;22.77;31.09
18569;BME280;14780;48.316;-1.050;2023-02-25T11:24:36;98622.47;;;22.79;31.20
18569;BME280;14780;48.316;-1.050;2023-02-25T11:30:16;98610.47;;;22.85;31.24
18569;BME280;14780;48.316;-1.050;2023-02-25T11:33:14;98614.28;;;22.89;31.14
18569;BME280;14780;48.316;-1.050;2023-02-25T11:36:03;98611.53;;;22.89;31.24
18569;BME280;14780;48.316;-1.050;2023-02-25T11:38:48;98619.19;;;22.92;31.09
18569;BME280;14780;48.316;-1.050;2023-02-25T11:41:34;98614.53;;;22.92;31.11
18569;BME280;14780;48.316;-1.050;2023-02-25T11:44:21;98612.06;;;22.96;31.18
18569;BME280;14780;48.316;-1.050;2023-02-25T11:47:30;98610.97;;;23.02;31.00
18569;BME280;14780;48.316;-1.050;2023-02-25T11:56:39;98602.25;;;23.00;31.17
18569;BME280;14780;48.316;-1.050;2023-02-25T12:08:35;98582.84;;;23.06;31.12
18569;BME280;14780;48.316;-1.050;2023-02-25T12:30:40;98582.00;;;23.21;31.06
18569;BME280;14780;48.316;-1.050;2023-02-25T12:36:55;98578.19;;;23.22;31.01
18569;BME280;14780;48.316;-1.050;2023-02-25T12:39:54;98581.44;;;23.24;31.04
18569;BME280;14780;48.316;-1.050;2023-02-25T12:52:19;98579.78;;;23.28;31.04
18569;BME280;14780;48.316;-1.050;2023-02-25T12:55:32;98562.31;;;23.29;30.99
18569;BME280;14780;48.316;-1.050;2023-02-25T12:58:55;98574.28;;;23.33;30.87
18569;BME280;14780;48.316;-1.050;2023-02-25T13:05:02;98559.00;;;23.37;30.89
18569;BME280;14780;48.316;-1.050;2023-02-25T13:34:44;98579.56;;;23.62;30.90
18569;BME280;14780;48.316;-1.050;2023-02-25T13:37:44;98575.72;;;23.68;31.05
18569;BME280;14780;48.316;-1.050;2023-02-25T14:19:01;98575.09;;;23.76;31.36
18569;BME280;14780;48.316;-1.050;2023-02-25T14:22:21;98574.84;;;23.78;31.31
18569;BME280;14780;48.316;-1.050;2023-02-25T14:31:18;98563.38;;;23.76;31.32
18569;BME280;14780;48.316;-1.050;2023-02-25T14:37:34;98583.84;;;23.78;31.32
18569;BME280;14780;48.316;-1.050;2023-02-25T14:40:26;98577.03;;;23.76;31.36
18569;BME280;14780;48.316;-1.050;2023-02-25T14:43:26;98583.84;;;23.78;31.44
18569;BME280;14780;48.316;-1.050;2023-02-25T15:10:54;98611.22;;;23.68;31.35
18569;BME280;14780;48.316;-1.050;2023-02-25T15:17:02;98615.06;;;23.67;31.14
18569;BME280;14780;48.316;-1.050;2023-02-25T15:23:10;98604.13;;;23.67;31.21
18569;BME280;14780;48.316;-1.050;2023-02-25T15:26:18;98603.59;;;23.70;31.17
18569;BME280;14780;48.316;-1.050;2023-02-25T15:29:03;98613.16;;;23.68;31.24
18569;BME280;14780;48.316;-1.050;2023-02-25T15:32:24;98617.25;;;23.70;31.03
18569;BME280;14780;48.316;-1.050;2023-02-25T15:35:20;98625.44;;;23.65;31.10
18569;BME280;14780;48.316;-1.050;2023-02-25T15:38:18;98619.41;;;23.68;31.05
18569;BME280;14780;48.316;-1.050;2023-02-25T15:47:22;98624.34;;;23.66;31.02
18569;BME280;14780;48.316;-1.050;2023-02-25T15:50:08;98632.00;;;23.64;30.97
18569;BME280;14780;48.316;-1.050;2023-02-25T15:52:56;98626.56;;;23.64;31.05
18569;BME280;14780;48.316;-1.050;2023-02-25T15:55:42;98629.22;;;23.69;31.08
18569;BME280;14780;48.316;-1.050;2023-02-25T16:01:28;98628.66;;;23.77;31.07
18569;BME280;14780;48.316;-1.050;2023-02-25T16:04:46;98620.44;;;23.87;31.01
18569;BME280;14780;48.316;-1.050;2023-02-25T16:07:44;98626.94;;;23.91;30.97
18569;BME280;14780;48.316;-1.050;2023-02-25T16:10:44;98624.72;;;23.98;30.76
18569;BME280;14780;48.316;-1.050;2023-02-25T16:13:34;98627.44;;;23.98;30.85
18569;BME280;14780;48.316;-1.050;2023-02-25T16:16:20;98632.34;;;24.01;30.80
18569;BME280;14780;48.316;-1.050;2023-02-25T16:19:08;98644.06;;;24.07;30.76
18569;BME280;14780;48.316;-1.050;2023-02-25T16:22:15;98643.22;;;24.11;30.68
18569;BME280;14780;48.316;-1.050;2023-02-25T16:25:02;98644.31;;;24.10;30.79
18569;BME280;14780;48.316;-1.050;2023-02-25T16:30:48;98645.34;;;24.19;30.56
18569;BME280;14780;48.316;-1.050;2023-02-25T16:40:29;98657.84;;;24.30;30.52
18569;BME280;14780;48.316;-1.050;2023-02-25T16:43:22;98661.69;;;24.29;30.54
18569;BME280;14780;48.316;-1.050;2023-02-25T16:46:15;98661.09;;;24.32;30.76
18569;BME280;14780;48.316;-1.050;2023-02-25T16:49:16;98667.09;;;24.34;30.88
18569;BME280;14780;48.316;-1.050;2023-02-25T16:52:03;98664.59;;;24.38;30.68
18569;BME280;14780;48.316;-1.050;2023-02-25T16:54:55;98670.91;;;24.38;30.62
18569;BME280;14780;48.316;-1.050;2023-02-25T16:57:41;98674.41;;;24.44;30.73
18569;BME280;14780;48.316;-1.050;2023-02-25T17:00:55;98672.75;;;24.48;30.78
18569;BME280;14780;48.316;-1.050;2023-02-25T17:03:44;98681.75;;;24.48;30.77
18569;BME280;14780;48.316;-1.050;2023-02-25T17:06:32;98691.03;;;24.52;30.83
18569;BME280;14780;48.316;-1.050;2023-02-25T17:09:22;98687.47;;;24.57;31.02
18569;BME280;14780;48.316;-1.050;2023-02-25T17:12:10;98691.25;;;24.61;30.90
18569;BME280;14780;48.316;-1.050;2023-02-25T17:14:59;98697.25;;;24.63;30.89
18569;BME280;14780;48.316;-1.050;2023-02-25T17:17:46;98698.63;;;24.65;31.04
18569;BME280;14780;48.316;-1.050;2023-02-25T17:20:34;98705.72;;;24.66;30.86
18569;BME280;14780;48.316;-1.050;2023-02-25T17:23:19;98714.97;;;24.70;30.86
18569;BME280;14780;48.316;-1.050;2023-02-25T17:26:04;98714.97;;;24.70;30.95
18569;BME280;14780;48.316;-1.050;2023-02-25T17:28:52;98717.13;;;24.73;30.91
18569;BME280;14780;48.316;-1.050;2023-02-25T17:31:57;98724.50;;;24.78;30.99
18569;BME280;14780;48.316;-1.050;2023-02-25T17:34:41;98717.13;;;24.73;31.03
18569;BME280;14780;48.316;-1.050;2023-02-25T17:37:28;98711.66;;;24.73;30.98
18569;BME280;14780;48.316;-1.050;2023-02-25T17:40:15;98720.41;;;24.75;31.10
18569;BME280;14780;48.316;-1.050;2023-02-25T17:43:23;98731.84;;;24.82;31.23
18569;BME280;14780;48.316;-1.050;2023-02-25T17:46:32;98730.44;;;24.85;31.43
18569;BME280;14780;48.316;-1.050;2023-02-25T17:49:27;98733.69;;;24.87;31.71
18569;BME280;14780;48.316;-1.050;2023-02-25T17:55:21;98743.78;;;24.91;31.74
18569;BME280;14780;48.316;-1.050;2023-02-25T17:58:22;98741.63;;;24.88;32.25
18569;BME280;14780;48.316;-1.050;2023-02-25T18:01:22;98742.69;;;24.92;32.08
18569;BME280;14780;48.316;-1.050;2023-02-25T18:04:07;98741.03;;;24.91;32.10
18569;BME280;14780;48.316;-1.050;2023-02-25T18:06:53;98743.78;;;24.91;32.05
18569;BME280;14780;48.316;-1.050;2023-02-25T18:09:39;98745.13;;;24.94;32.27
18569;BME280;14780;48.316;-1.050;2023-02-25T18:12:31;98754.19;;;24.94;32.30
18569;BME280;14780;48.316;-1.050;2023-02-25T18:15:20;98748.97;;;24.93;32.51
18569;BME280;14780;48.316;-1.050;2023-02-25T18:18:06;98755.28;;;24.93;32.46
18569;BME280;14780;48.316;-1.050;2023-02-25T18:21:01;98756.91;;;24.94;32.39
18569;BME280;14780;48.316;-1.050;2023-02-25T18:23:48;98760.75;;;24.93;32.55
18569;BME280;14780;48.316;-1.050;2023-02-25T18:26:34;98763.50;;;24.93;32.63
18569;BME280;14780;48.316;-1.050;2023-02-25T18:29:19;98768.97;;;24.93;32.58
18569;BME280;14780;48.316;-1.050;2023-02-25T18:32:04;98765.69;;;24.91;32.62
18569;BME280;14780;48.316;-1.050;2023-02-25T18:34:49;98776.09;;;24.89;32.70
18569;BME280;14780;48.316;-1.050;2023-02-25T18:37:33;98764.91;;;24.86;32.59